Time;durP1;ratioP1;P1;durP2;ratioP2;P2;SDS_P1;SDS_P2;PMS_P1;PMS_P2;Temp;Humidity;BMP_temperature;BMP_pressure;BME280_temperature;BME280_humidity;BME280_pressure;Samples;Min_cycle;Max_cycle;Signal;HPM_P1;HPM_P2
2022/11/24 00:01:55;;;;;;;10.90;7.73;;;5.10;99.90;;;;;;6212559;23;20289;-46
2022/11/24 00:04:21;;;;;;;15.03;7.50;;;5.10;99.90;;;;;;6212430;23;20848;-46
2022/11/24 00:06:46;;;;;;;11.00;7.87;;;5.00;99.90;;;;;;6185482;23;20524;-46
2022/11/24 00:09:12;;;;;;;13.90;7.67;;;5.20;99.90;;;;;;6212973;23;20170;-45
2022/11/24 00:11:38;;;;;;;10.80;7.50;;;5.10;99.90;;;;;;6213086;23;20178;-46
2022/11/24 00:14:05;;;;;;;12.57;7.77;;;5.10;99.90;;;;;;6212440;23;20445;-45
2022/11/24 00:16:35;;;;;;;12.70;7.90;;;5.00;99.90;;;;;;6212610;23;20170;-46
2022/11/24 00:19:03;;;;;;;9.60;6.60;;;5.10;99.90;;;;;;6212819;23;20416;-46
2022/11/24 00:21:30;;;;;;;12.03;7.70;;;5.10;99.90;;;;;;6212698;23;20495;-46
2022/11/24 00:23:56;;;;;;;17.53;8.00;;;5.10;99.90;;;;;;6212319;23;20366;-46
2022/11/24 00:26:24;;;;;;;12.80;7.73;;;5.10;99.90;;;;;;6212724;23;20669;-45
2022/11/24 00:28:51;;;;;;;11.93;7.60;;;5.10;99.90;;;;;;6212410;23;20441;-45
2022/11/24 00:31:20;;;;;;;12.30;7.70;;;5.10;99.90;;;;;;6186250;23;20692;-46
2022/11/24 00:33:49;;;;;;;19.37;7.80;;;5.10;99.90;;;;;;6212490;23;20709;-46
2022/11/24 00:36:16;;;;;;;12.10;7.80;;;5.10;99.90;;;;;;6211382;23;20445;-46
2022/11/24 00:38:43;;;;;;;10.03;7.10;;;5.10;99.90;;;;;;6212636;23;20812;-46
2022/11/24 00:41:09;;;;;;;12.60;8.03;;;5.10;99.90;;;;;;6212547;23;20425;-46
2022/11/24 00:43:34;;;;;;;15.83;8.37;;;5.10;99.90;;;;;;6211799;23;20446;-45
2022/11/24 00:46:00;;;;;;;17.40;8.60;;;5.10;99.90;;;;;;6206395;23;20143;-45
2022/11/24 00:48:26;;;;;;;14.60;7.80;;;5.10;99.90;;;;;;6212425;23;20574;-46
2022/11/24 00:51:00;;;;;;;19.83;8.90;;;5.20;99.90;;;;;;6212344;23;20381;-57
2022/11/24 00:53:26;;;;;;;13.20;7.73;;;5.20;99.90;;;;;;6212544;23;20206;-57
2022/11/24 00:55:52;;;;;;;11.07;7.40;;;5.20;99.90;;;;;;6212411;23;20366;-56
2022/11/24 00:58:18;;;;;;;23.53;8.33;;;5.20;99.90;;;;;;6212858;23;20370;-56
2022/11/24 01:00:44;;;;;;;16.67;7.70;;;5.10;99.90;;;;;;6212002;23;20483;-56
2022/11/24 01:03:11;;;;;;;14.03;7.30;;;5.20;1.00;;;;;;6212577;23;20409;-56
2022/11/24 01:05:37;;;;;;;17.17;7.60;;;5.20;1.00;;;;;;6212517;23;20181;-57
2022/11/24 01:08:02;;;;;;;11.50;7.30;;;5.10;1.00;;;;;;6213495;23;20361;-57
2022/11/24 01:10:28;;;;;;;13.03;6.97;;;5.10;1.00;;;;;;6214186;23;20162;-62
2022/11/24 01:12:53;;;;;;;12.90;7.43;;;5.10;1.00;;;;;;6214172;23;20168;-54
2022/11/24 01:15:19;;;;;;;13.07;7.93;;;5.20;1.00;;;;;;6188252;23;20159;-57
2022/11/24 01:17:45;;;;;;;11.30;7.30;;;5.20;1.00;;;;;;6214667;23;20169;-57
2022/11/24 01:20:11;;;;;;;13.20;6.80;;;5.20;1.00;;;;;;6208595;23;20640;-57
2022/11/24 01:22:37;;;;;;;15.87;7.07;;;5.20;1.00;;;;;;6214403;23;20143;-58
2022/11/24 01:25:05;;;;;;;9.90;7.03;;;5.20;1.00;;;;;;6213603;23;20382;-57
2022/11/24 01:27:31;;;;;;;14.97;7.27;;;5.20;1.00;;;;;;6186681;23;20394;-57
2022/11/24 01:29:58;;;;;;;18.47;7.03;;;5.30;1.00;;;;;;6213965;23;20728;-57
2022/11/24 01:32:23;;;;;;;15.50;7.33;;;5.30;1.00;;;;;;6213806;23;20915;-57
2022/11/24 01:34:49;;;;;;;18.07;8.40;;;5.30;1.00;;;;;;6214212;23;20421;-57
2022/11/24 01:37:14;;;;;;;17.80;7.67;;;5.30;1.00;;;;;;6207654;23;20154;-57
2022/11/24 01:39:40;;;;;;;15.20;7.50;;;5.40;1.00;;;;;;6213994;23;20153;-57
2022/11/24 01:42:06;;;;;;;15.83;6.70;;;5.30;1.00;;;;;;6187261;23;20183;-57
2022/11/24 01:44:32;;;;;;;14.70;7.70;;;5.40;1.00;;;;;;6214426;23;20433;-57
2022/11/24 01:47:05;;;;;;;14.43;7.57;;;5.50;1.00;;;;;;6214325;23;20812;-57
2022/11/24 01:49:45;;;;;;;11.97;6.87;;;5.50;1.00;;;;;;6213712;23;20362;-57
2022/11/24 01:52:18;;;;;;;12.30;7.20;;;5.50;1.00;;;;;;6214480;23;20436;-57
2022/11/24 01:54:52;;;;;;;12.20;7.53;;;5.40;1.00;;;;;;6208602;23;20457;-57
2022/11/24 01:57:24;;;;;;;12.83;7.63;;;5.40;1.00;;;;;;6215152;23;20524;-57
2022/11/24 01:59:58;;;;;;;15.13;7.90;;;5.40;1.00;;;;;;6213489;23;20396;-57
2022/11/24 02:02:28;;;;;;;15.07;7.73;;;5.40;1.00;;;;;;6214262;23;20401;-57
2022/11/24 02:04:59;;;;;;;12.47;6.17;;;5.40;1.00;;;;;;6214372;23;20701;-57
2022/11/24 02:07:25;;;;;;;18.27;7.53;;;5.50;1.00;;;;;;6213983;23;20738;-54
2022/11/24 02:09:54;;;;;;;15.87;8.10;;;5.50;1.00;;;;;;6213631;23;20695;-57
2022/11/24 02:12:22;;;;;;;12.43;7.73;;;5.40;1.00;;;;;;6213895;23;20436;-57
2022/11/24 02:14:48;;;;;;;11.30;7.53;;;5.40;1.00;;;;;;6213780;23;20445;-57
2022/11/24 02:17:13;;;;;;;14.07;8.00;;;5.50;1.00;;;;;;6214252;23;20464;-57
2022/11/24 02:19:39;;;;;;;13.27;8.60;;;5.50;1.00;;;;;;6214361;23;20385;-57
2022/11/24 02:22:20;;;;;;;15.57;7.70;;;5.50;1.00;;;;;;6213892;23;20605;-57
2022/11/24 02:24:48;;;;;;;11.90;7.40;;;5.50;1.00;;;;;;6213015;23;20154;-57
2022/11/24 02:27:14;;;;;;;23.10;8.67;;;5.50;1.00;;;;;;6213325;23;20381;-57
2022/11/24 02:29:40;;;;;;;15.70;7.57;;;5.40;1.00;;;;;;6214099;23;20469;-58
2022/11/24 02:32:08;;;;;;;17.47;8.03;;;5.40;1.00;;;;;;6213994;23;20193;-54
2022/11/24 02:34:33;;;;;;;11.50;7.77;;;5.40;1.00;;;;;;6213282;23;20385;-57
2022/11/24 02:36:59;;;;;;;11.63;6.97;;;5.40;1.00;;;;;;6212921;23;20428;-57
2022/11/24 02:39:25;;;;;;;15.07;8.07;;;5.30;1.00;;;;;;6213533;23;20201;-57
2022/11/24 02:41:54;;;;;;;17.60;7.80;;;5.30;1.00;;;;;;6186034;23;20185;-57
2022/11/24 02:44:23;;;;;;;16.10;7.60;;;5.10;1.00;;;;;;6213745;23;20142;-58
2022/11/24 02:46:49;;;;;;;13.87;8.00;;;5.10;1.00;;;;;;6213614;23;20837;-56
2022/11/24 02:49:15;;;;;;;14.47;7.30;;;5.00;1.00;;;;;;6213499;23;20378;-58
2022/11/24 02:51:40;;;;;;;12.73;7.30;;;5.00;1.00;;;;;;6213911;23;20147;-57
2022/11/24 02:54:06;;;;;;;13.60;8.13;;;4.90;1.00;;;;;;6213729;23;20380;-57
2022/11/24 02:56:31;;;;;;;19.47;7.60;;;5.00;1.00;;;;;;6213575;23;20226;-57
2022/11/24 02:58:57;;;;;;;14.73;7.17;;;4.90;1.00;;;;;;6212721;23;20147;-58
2022/11/24 03:01:23;;;;;;;15.97;8.20;;;4.80;1.00;;;;;;6213447;23;20196;-57
2022/11/24 03:03:48;;;;;;;10.80;7.83;;;4.80;1.00;;;;;;6213155;23;20139;-57
2022/11/24 03:06:14;;;;;;;15.23;7.80;;;4.80;1.00;;;;;;6213217;23;20142;-57
2022/11/24 03:08:39;;;;;;;12.57;7.97;;;4.70;1.00;;;;;;6213350;23;20586;-57
2022/11/24 03:11:05;;;;;;;13.10;8.27;;;4.80;1.00;;;;;;6213323;23;20151;-61
2022/11/24 03:13:30;;;;;;;12.70;6.70;;;4.80;1.00;;;;;;6212801;23;20225;-58
2022/11/24 03:15:56;;;;;;;13.47;8.00;;;4.70;1.00;;;;;;6212989;23;20178;-58
2022/11/24 03:18:22;;;;;;;17.10;7.20;;;4.70;1.00;;;;;;6213182;23;20149;-58
2022/11/24 03:20:47;;;;;;;14.50;6.80;;;4.60;1.00;;;;;;6214303;23;20182;-57
2022/11/24 03:23:13;;;;;;;16.87;8.00;;;4.70;1.00;;;;;;6213236;23;20151;-57
2022/11/24 03:25:38;;;;;;;12.37;7.90;;;4.80;1.00;;;;;;6186692;23;20169;-57
2022/11/24 03:28:04;;;;;;;18.80;8.00;;;4.70;1.00;;;;;;6212823;23;20151;-57
2022/11/24 03:30:30;;;;;;;17.30;9.07;;;4.70;1.00;;;;;;6213232;23;20495;-57
2022/11/24 03:32:55;;;;;;;13.47;8.43;;;4.70;1.00;;;;;;6212513;23;20370;-57
2022/11/24 03:35:21;;;;;;;13.13;7.83;;;4.90;1.00;;;;;;6213791;23;20147;-57
2022/11/24 03:37:47;;;;;;;16.27;7.50;;;4.90;1.00;;;;;;6185639;23;20167;-57
2022/11/24 03:40:13;;;;;;;16.70;8.87;;;5.00;1.00;;;;;;6213521;23;20147;-57
2022/11/24 03:42:39;;;;;;;17.27;8.27;;;5.00;1.00;;;;;;6206493;23;20480;-54
2022/11/24 03:45:05;;;;;;;13.47;7.77;;;5.00;1.00;;;;;;6213151;23;20369;-57
2022/11/24 03:47:31;;;;;;;14.77;8.50;;;5.10;1.00;;;;;;6211829;23;20362;-57
2022/11/24 03:49:56;;;;;;;12.63;7.90;;;5.10;1.00;;;;;;6213241;23;20366;-57
2022/11/24 03:52:25;;;;;;;15.10;8.50;;;5.20;1.00;;;;;;6212777;23;20524;-57
2022/11/24 03:54:51;;;;;;;17.27;8.20;;;5.20;1.00;;;;;;6187043;23;20513;-57
2022/11/24 03:57:16;;;;;;;15.53;8.40;;;5.20;1.00;;;;;;6212815;23;20363;-57
2022/11/24 03:59:44;;;;;;;17.50;9.00;;;5.20;1.00;;;;;;6186448;23;20390;-57
2022/11/24 04:02:09;;;;;;;14.83;7.90;;;5.20;1.00;;;;;;6212209;23;20170;-57
2022/11/24 04:04:35;;;;;;;14.10;8.63;;;5.30;1.00;;;;;;6213240;23;20409;-58
2022/11/24 04:07:01;;;;;;;12.73;7.57;;;5.30;1.00;;;;;;6212776;23;20366;-57
2022/11/24 04:09:26;;;;;;;11.43;8.17;;;5.30;1.00;;;;;;6180838;23;20952;-57
2022/11/24 04:14:36;;;;;;;15.43;7.67;;;5.40;1.00;;;;;;6212676;23;20277;-58
2022/11/24 04:17:03;;;;;;;19.27;8.40;;;5.30;1.00;;;;;;6212764;23;20971;-57
2022/11/24 04:19:28;;;;;;;18.43;8.10;;;5.30;1.00;;;;;;6212582;23;20143;-60
2022/11/24 04:21:54;;;;;;;16.00;8.33;;;5.40;1.00;;;;;;6212311;23;20447;-57
2022/11/24 04:24:20;;;;;;;22.07;8.57;;;5.30;1.00;;;;;;6212543;23;20608;-57
2022/11/24 04:26:45;;;;;;;22.60;8.37;;;5.30;1.00;;;;;;6212877;23;20164;-57
2022/11/24 04:29:11;;;;;;;14.33;7.20;;;5.30;1.00;;;;;;6213302;23;20150;-57
2022/11/24 04:31:36;;;;;;;21.30;8.40;;;5.30;1.00;;;;;;6212398;23;20225;-57
2022/11/24 04:34:02;;;;;;;18.30;8.80;;;5.40;1.00;;;;;;6212757;23;20166;-57
2022/11/24 04:36:28;;;;;;;16.23;9.20;;;5.40;1.00;;;;;;6213186;23;20150;-57
2022/11/24 04:38:53;;;;;;;18.57;9.20;;;5.40;1.00;;;;;;6211594;23;20154;-57
2022/11/24 04:41:19;;;;;;;16.70;8.77;;;5.40;1.00;;;;;;6212541;23;20178;-57
2022/11/24 04:43:48;;;;;;;11.33;8.10;;;5.40;1.00;;;;;;6206076;23;20149;-57
2022/11/24 04:46:13;;;;;;;20.17;8.70;;;5.40;1.00;;;;;;6185673;23;20147;-57
2022/11/24 04:48:40;;;;;;;15.33;8.20;;;5.40;1.00;;;;;;6212059;23;20484;-56
2022/11/24 04:51:06;;;;;;;24.13;9.47;;;5.50;1.00;;;;;;6213368;23;20310;-57
2022/11/24 04:53:31;;;;;;;16.50;9.20;;;5.50;1.00;;;;;;6212515;23;20860;-57
2022/11/24 04:55:57;;;;;;;19.57;9.20;;;5.50;1.00;;;;;;6211994;23;20185;-57
2022/11/24 04:58:22;;;;;;;12.97;8.73;;;5.50;1.00;;;;;;6211655;23;20169;-57
2022/11/24 05:00:48;;;;;;;18.03;9.20;;;5.50;1.00;;;;;;6212349;23;20181;-54
2022/11/24 05:03:13;;;;;;;15.50;9.10;;;5.50;1.00;;;;;;6185921;23;20297;-57
2022/11/24 05:05:39;;;;;;;15.10;8.40;;;5.60;1.00;;;;;;6212083;23;20585;-57
2022/11/24 05:08:05;;;;;;;17.97;9.00;;;5.60;1.00;;;;;;6211847;23;20416;-57
2022/11/24 05:10:33;;;;;;;18.13;9.50;;;5.60;1.00;;;;;;6212114;23;20169;-57
2022/11/24 05:13:00;;;;;;;28.93;9.40;;;5.60;1.00;;;;;;6211619;23;20166;-56
2022/11/24 05:15:25;;;;;;;20.40;9.60;;;5.60;1.00;;;;;;6212930;23;20392;-57
2022/11/24 05:17:52;;;;;;;12.43;8.10;;;5.70;1.00;;;;;;6212130;23;20369;-57
2022/11/24 05:20:17;;;;;;;14.13;8.33;;;5.60;1.00;;;;;;6206882;23;20480;-57
2022/11/24 05:22:44;;;;;;;18.20;8.97;;;5.60;1.00;;;;;;6212629;23;20401;-57
2022/11/24 05:25:10;;;;;;;15.70;9.20;;;5.70;1.00;;;;;;6212455;23;20146;-57
2022/11/24 05:27:36;;;;;;;17.33;8.23;;;5.80;1.00;;;;;;6211613;23;20664;-57
2022/11/24 05:30:02;;;;;;;14.77;9.00;;;5.80;1.00;;;;;;6212139;23;20174;-57
2022/11/24 05:32:28;;;;;;;15.03;8.80;;;5.70;1.00;;;;;;6212474;23;20165;-56
2022/11/24 05:34:53;;;;;;;17.27;8.40;;;5.70;1.00;;;;;;6212626;23;20792;-57
2022/11/24 05:37:19;;;;;;;17.00;8.30;;;5.70;1.00;;;;;;6212101;23;20143;-57
2022/11/24 05:39:45;;;;;;;20.73;10.20;;;5.70;1.00;;;;;;6212318;23;20138;-57
2022/11/24 05:44:56;;;;;;;17.67;9.17;;;5.70;1.00;;;;;;6211974;23;20262;-57
2022/11/24 05:47:22;;;;;;;21.10;9.13;;;5.70;1.00;;;;;;6210951;23;20392;-57
2022/11/24 05:49:48;;;;;;;14.67;8.13;;;5.70;1.00;;;;;;6212907;23;20417;-55
2022/11/24 05:52:14;;;;;;;15.07;8.13;;;5.70;1.00;;;;;;6212121;23;20376;-57
2022/11/24 05:54:40;;;;;;;14.73;8.47;;;5.70;1.00;;;;;;6213312;23;20190;-57
2022/11/24 05:57:06;;;;;;;18.13;8.27;;;5.70;1.00;;;;;;6213419;23;20393;-57
2022/11/24 05:59:32;;;;;;;13.77;8.40;;;5.70;1.00;;;;;;6213975;23;20165;-57
2022/11/24 06:01:57;;;;;;;19.93;10.00;;;5.70;1.00;;;;;;6186496;23;20198;-57
2022/11/24 06:04:24;;;;;;;16.03;9.80;;;5.70;1.00;;;;;;6214387;23;20208;-58
2022/11/24 06:06:50;;;;;;;16.60;8.57;;;5.80;1.00;;;;;;6213985;23;20644;-55
2022/11/24 06:09:16;;;;;;;15.30;9.17;;;5.80;1.00;;;;;;6214315;23;20389;-57
2022/11/24 06:11:42;;;;;;;20.10;9.50;;;5.80;1.00;;;;;;6213461;23;20143;-57
2022/11/24 06:14:09;;;;;;;13.07;8.77;;;5.80;1.00;;;;;;6212117;23;20201;-57
2022/11/24 06:16:35;;;;;;;25.73;9.30;;;5.80;1.00;;;;;;6214195;23;20432;-57
2022/11/24 06:19:00;;;;;;;21.27;9.77;;;5.80;1.00;;;;;;6214339;23;20366;-57
2022/11/24 06:21:27;;;;;;;18.13;9.90;;;5.80;1.00;;;;;;6187779;23;20781;-57
2022/11/24 06:23:53;;;;;;;20.87;10.03;;;5.80;1.00;;;;;;6214097;23;20147;-56
2022/11/24 06:26:18;;;;;;;18.27;9.50;;;5.80;1.00;;;;;;6213978;23;20408;-57
2022/11/24 06:28:45;;;;;;;18.43;9.60;;;5.80;1.00;;;;;;6213960;23;20150;-57
2022/11/24 06:31:11;;;;;;;18.73;9.07;;;5.80;1.00;;;;;;6213553;23;20589;-57
2022/11/24 06:33:37;;;;;;;23.10;9.83;;;5.80;1.00;;;;;;6214040;23;20378;-57
2022/11/24 06:36:06;;;;;;;19.50;9.47;;;5.80;1.00;;;;;;6208581;23;20458;-57
2022/11/24 06:38:33;;;;;;;17.30;9.17;;;5.70;1.00;;;;;;6213559;23;20385;-57
2022/11/24 06:41:01;;;;;;;17.80;9.47;;;5.70;1.00;;;;;;6213512;23;20417;-57
2022/11/24 06:43:28;;;;;;;19.03;9.23;;;5.70;1.00;;;;;;6213211;23;20669;-57
2022/11/24 06:45:53;;;;;;;14.70;9.70;;;5.60;1.00;;;;;;6214149;23;20381;-57
2022/11/24 06:48:20;;;;;;;17.20;10.30;;;5.50;1.00;;;;;;6212038;23;20440;-57
2022/11/24 06:50:46;;;;;;;19.00;9.20;;;5.50;1.00;;;;;;6213107;23;20474;-57
2022/11/24 06:53:11;;;;;;;26.43;8.97;;;5.40;1.00;;;;;;6213847;23;20397;-55
2022/11/24 06:55:38;;;;;;;20.63;9.73;;;5.40;1.00;;;;;;6188145;23;20166;-58
2022/11/24 06:58:04;;;;;;;23.30;9.20;;;5.40;1.00;;;;;;6214578;23;20146;-57
2022/11/24 07:00:32;;;;;;;20.40;10.90;;;5.40;1.00;;;;;;6188040;23;20483;-58
2022/11/24 07:02:58;;;;;;;21.87;9.97;;;5.30;1.00;;;;;;6214772;23;20561;-57
2022/11/24 07:05:24;;;;;;;23.37;10.10;;;5.30;1.00;;;;;;6214068;23;20374;-57
2022/11/24 07:07:50;;;;;;;16.90;9.93;;;5.30;1.00;;;;;;6214786;23;20377;-57
2022/11/24 07:10:16;;;;;;;23.43;9.60;;;5.30;1.00;;;;;;6213389;23;20559;-57
2022/11/24 07:12:41;;;;;;;25.73;11.57;;;5.30;1.00;;;;;;6214783;23;20573;-57
2022/11/24 07:15:08;;;;;;;25.90;10.50;;;5.30;1.00;;;;;;6214400;23;20199;-57
2022/11/24 07:17:38;;;;;;;20.97;10.20;;;5.30;1.00;;;;;;6188026;23;20249;-55
2022/11/24 07:20:08;;;;;;;19.67;9.93;;;5.30;1.00;;;;;;6213077;23;20386;-57
2022/11/24 07:22:34;;;;;;;31.83;11.30;;;5.30;1.00;;;;;;6207994;23;20397;-58
2022/11/24 07:25:00;;;;;;;21.43;10.30;;;5.30;1.00;;;;;;6213751;23;20510;-62
2022/11/24 07:27:29;;;;;;;21.73;9.90;;;5.20;1.00;;;;;;6213964;23;20204;-57
2022/11/24 07:29:55;;;;;;;17.00;9.80;;;5.30;1.00;;;;;;6213638;23;20817;-60
2022/11/24 07:32:21;;;;;;;23.83;10.43;;;5.30;1.00;;;;;;6212393;23;20427;-46
2022/11/24 07:34:46;;;;;;;19.03;9.10;;;5.30;1.00;;;;;;6213269;23;20158;-46
2022/11/24 07:37:12;;;;;;;18.20;10.63;;;5.30;1.00;;;;;;6213852;23;20414;-48
2022/11/24 07:39:38;;;;;;;27.13;11.53;;;5.30;1.00;;;;;;6208529;23;20139;-45
2022/11/24 07:42:04;;;;;;;23.97;10.10;;;5.30;1.00;;;;;;6213702;23;20692;-45
2022/11/24 07:44:32;;;;;;;28.13;11.87;;;5.30;1.00;;;;;;6213398;23;20178;-46
2022/11/24 07:46:59;;;;;;;16.37;9.40;;;5.30;1.00;;;;;;6215081;23;20374;-46
2022/11/24 07:49:24;;;;;;;18.97;10.17;;;5.30;1.00;;;;;;6186683;23;20390;-45
2022/11/24 07:51:50;;;;;;;24.23;10.80;;;5.40;1.00;;;;;;6213214;23;20976;-45
2022/11/24 07:54:16;;;;;;;22.37;11.43;;;5.50;1.00;;;;;;6202561;23;20146;-46
2022/11/24 07:56:43;;;;;;;26.60;11.05;;;5.60;1.00;;;;;;6207299;23;20725;-46
2022/11/24 07:59:09;;;;;;;24.03;12.30;;;5.60;1.00;;;;;;6213813;23;20143;-46
2022/11/24 08:01:35;;;;;;;21.63;11.23;;;5.70;1.00;;;;;;6213271;23;20188;-46
2022/11/24 08:04:01;;;;;;;27.27;11.10;;;5.70;1.00;;;;;;6186741;23;20394;-46
2022/11/24 08:06:31;;;;;;;29.80;11.90;;;5.80;1.00;;;;;;6214650;23;20178;-46
2022/11/24 08:08:57;;;;;;;30.90;11.47;;;5.90;1.00;;;;;;6213094;23;20385;-46
2022/11/24 08:11:23;;;;;;;25.00;11.57;;;5.90;1.00;;;;;;6213997;23;20424;-46
2022/11/24 08:13:48;;;;;;;24.57;12.40;;;5.90;1.00;;;;;;6212920;23;20441;-46
2022/11/24 08:16:16;;;;;;;28.07;12.07;;;6.00;1.00;;;;;;6213844;23;20718;-46
2022/11/24 08:18:43;;;;;;;35.20;12.67;;;6.10;1.00;;;;;;6213098;23;20166;-46
2022/11/24 08:21:13;;;;;;;35.00;12.37;;;6.20;1.00;;;;;;6213610;23;20448;-46
2022/11/24 08:23:38;;;;;;;21.40;12.60;;;6.20;1.00;;;;;;6212913;23;20373;-46
2022/11/24 08:26:07;;;;;;;28.73;12.10;;;6.20;1.00;;;;;;6213771;23;20444;-47
2022/11/24 08:28:34;;;;;;;23.13;12.07;;;6.20;1.00;;;;;;6212702;23;20139;-51
2022/11/24 08:31:05;;;;;;;24.57;11.50;;;6.30;1.00;;;;;;6211742;23;20856;-46
2022/11/24 08:33:31;;;;;;;26.53;12.07;;;6.30;1.00;;;;;;6212437;23;20409;-46
2022/11/24 08:36:02;;;;;;;19.43;10.53;;;6.40;1.00;;;;;;6213750;23;20362;-47
2022/11/24 08:38:28;;;;;;;26.27;12.97;;;6.40;1.00;;;;;;6213301;23;20143;-46
2022/11/24 08:40:53;;;;;;;26.93;11.90;;;6.50;1.00;;;;;;6213697;23;20413;-46
2022/11/24 08:43:19;;;;;;;29.40;12.20;;;6.60;1.00;;;;;;6212693;23;20234;-46
2022/11/24 08:45:45;;;;;;;23.63;11.77;;;6.60;1.00;;;;;;6213912;23;20163;-46
2022/11/24 08:48:10;;;;;;;31.77;13.50;;;6.70;1.00;;;;;;6213296;23;21210;-46
2022/11/24 08:50:36;;;;;;;37.47;12.57;;;6.80;1.00;;;;;;6213619;23;20490;-47
2022/11/24 08:53:01;;;;;;;32.00;11.80;;;6.90;1.00;;;;;;6212442;23;20216;-47
2022/11/24 08:55:27;;;;;;;28.00;11.37;;;7.10;1.00;;;;;;6213371;23;20161;-46
2022/11/24 08:57:53;;;;;;;21.57;11.13;;;7.20;1.00;;;;;;6213018;23;20466;-46
2022/11/24 09:00:21;;;;;;;32.53;14.63;;;7.30;1.00;;;;;;6213471;23;20295;-46
2022/11/24 09:02:53;;;;;;;173.43;85.63;;;7.40;1.00;;;;;;6212536;23;20671;-46
2022/11/24 09:05:18;;;;;;;33.73;12.27;;;7.50;1.00;;;;;;6213178;23;20825;-46
2022/11/24 09:07:44;;;;;;;20.73;10.93;;;7.70;1.00;;;;;;6212866;23;20384;-47
2022/11/24 09:10:10;;;;;;;22.90;11.27;;;7.80;1.00;;;;;;6213237;23;20177;-46
2022/11/24 09:12:35;;;;;;;24.97;9.53;;;7.90;1.00;;;;;;6213029;23;20158;-46
2022/11/24 09:15:01;;;;;;;19.87;10.03;;;8.00;1.00;;;;;;6213194;23;20202;-46
2022/11/24 09:17:27;;;;;;;26.00;10.43;;;8.10;1.00;;;;;;6213244;23;20371;-47
2022/11/24 09:19:52;;;;;;;22.03;10.37;;;8.00;1.00;;;;;;6212895;23;20197;-51
2022/11/24 09:22:18;;;;;;;23.63;10.60;;;8.00;1.00;;;;;;6212761;23;20182;-46
2022/11/24 09:24:43;;;;;;;20.70;8.70;;;7.90;1.00;;;;;;6213434;23;20470;-46
2022/11/24 09:27:09;;;;;;;24.73;10.50;;;8.00;1.00;;;;;;6212799;23;20213;-46
2022/11/24 09:29:34;;;;;;;24.43;10.50;;;8.00;1.00;;;;;;6208833;23;20166;-46
2022/11/24 09:32:00;;;;;;;21.10;9.77;;;8.00;1.00;;;;;;6213811;23;20155;-47
2022/11/24 09:34:26;;;;;;;19.40;10.00;;;8.00;1.00;;;;;;6188198;23;20232;-46
2022/11/24 09:36:51;;;;;;;24.83;10.70;;;8.10;1.00;;;;;;6215043;23;20158;-47
2022/11/24 09:39:17;;;;;;;18.03;9.80;;;8.20;1.00;;;;;;6189343;23;20261;-46
2022/11/24 09:42:05;;;;;;;28.87;10.60;;;8.30;99.90;;;;;;6214620;23;20509;-46
2022/11/24 09:45:01;;;;;;;16.93;10.00;;;8.30;99.90;;;;;;6215599;23;20241;-46
2022/11/24 09:47:57;;;;;;;19.73;10.40;;;8.50;99.90;;;;;;6214850;23;21089;-46
2022/11/24 09:50:28;;;;;;;31.13;10.40;;;8.60;99.90;;;;;;6214518;23;20843;-47
2022/11/24 09:53:09;;;;;;;19.83;10.53;;;8.70;99.90;;;;;;6215401;23;20370;-47
2022/11/24 09:55:49;;;;;;;29.53;11.30;;;8.80;99.90;;;;;;6214684;23;20399;-47
2022/11/24 09:58:40;;;;;;;17.20;9.17;;;8.90;99.90;;;;;;6214786;23;20838;-47
2022/11/24 10:01:20;;;;;;;23.87;10.70;;;9.00;99.90;;;;;;6214588;23;20419;-47
2022/11/24 10:03:50;;;;;;;23.77;10.30;;;9.10;99.90;;;;;;6214837;23;20796;-47
2022/11/24 10:06:23;;;;;;;26.00;9.90;;;9.30;99.90;;;;;;6214916;23;20680;-47
2022/11/24 10:09:01;;;;;;;19.80;9.63;;;9.50;99.90;;;;;;6214723;23;20469;-46
2022/11/24 10:11:44;;;;;;;20.92;9.57;;;9.80;99.90;;;;;;6214138;23;20423;-47
2022/11/24 10:14:45;;;;;;;19.40;7.97;;;10.10;1.00;;;;;;6214198;23;20202;-47
2022/11/24 10:17:32;;;;;;;23.60;8.80;;;10.30;99.90;;;;;;6151681;23;20395;-47
2022/11/24 10:20:34;;;;;;;14.57;8.00;;;10.40;20.00;;;;;;6210233;23;20681;-47
2022/11/24 10:23:20;;;;;;;26.70;8.43;;;10.50;16.70;;;;;;6214416;23;20408;-47
2022/11/24 10:25:53;;;;;;;25.50;8.98;;;10.50;99.90;;;;;;6213137;23;20469;-49
2022/11/24 10:28:19;;;;;;;16.63;8.27;;;10.30;8.90;;;;;;6214465;23;20158;-47
2022/11/24 10:30:44;;;;;;;21.80;7.87;;;10.20;1.00;;;;;;6214759;23;20377;-46
2022/11/24 10:33:19;;;;;;;19.60;7.30;;;10.00;99.90;;;;;;6214872;23;20153;-46
2022/11/24 10:35:55;;;;;;;19.60;8.77;;;9.90;1.00;;;;;;6214483;23;20154;-54
2022/11/24 10:38:39;;;;;;;22.10;8.90;;;9.80;1.00;;;;;;6214847;23;20421;-46
2022/11/24 10:41:20;;;;;;;22.23;8.93;;;9.80;96.10;;;;;;6213748;23;20411;-47
2022/11/24 10:43:46;;;;;;;19.67;8.10;;;9.90;99.90;;;;;;6188582;23;20385;-47
2022/11/24 10:46:22;;;;;;;25.17;8.27;;;9.90;99.90;;;;;;6215042;23;20366;-47
2022/11/24 10:49:14;;;;;;;25.20;8.03;;;10.00;99.90;;;;;;6214949;23;20166;-47
2022/11/24 10:51:49;;;;;;;25.60;8.70;;;10.10;99.90;;;;;;6214326;23;20385;-47
2022/11/24 10:54:20;;;;;;;21.10;7.80;;;10.20;1.00;;;;;;6213961;23;20400;-47
2022/11/24 10:56:49;;;;;;;19.07;7.17;;;10.40;99.90;;;;;;6186826;23;20386;-47
2022/11/24 10:59:39;;;;;;;22.20;7.83;;;10.60;1.00;;;;;;6206938;23;20396;-47
2022/11/24 11:02:36;;;;;;;20.10;7.00;;;10.70;43.50;;;;;;6206333;23;20485;-47
2022/11/24 11:05:40;;;;;;;20.80;7.10;;;10.60;87.20;;;;;;6213488;23;20432;-46
2022/11/24 11:08:31;;;;;;;18.13;8.53;;;10.60;99.90;;;;;;6214458;23;20361;-47
2022/11/24 11:11:20;;;;;;;17.17;8.00;;;10.50;99.90;;;;;;6206636;23;20773;-47
2022/11/24 11:14:09;;;;;;;21.23;7.07;;;10.60;99.90;;;;;;6214003;23;20468;-47
2022/11/24 11:16:42;;;;;;;13.33;5.93;;;10.70;1.00;;;;;;6206148;23;20405;-46
2022/11/24 11:19:32;;;;;;;15.60;6.60;;;10.80;99.90;;;;;;6213980;23;20374;-47
2022/11/24 11:22:18;;;;;;;36.03;7.70;;;10.80;1.00;;;;;;6214177;23;20498;-50
2022/11/24 11:24:46;;;;;;;17.67;5.93;;;10.60;1.00;;;;;;6213521;23;20394;-47
2022/11/24 11:27:23;;;;;;;23.43;6.47;;;10.60;1.00;;;;;;6214089;23;20839;-47
2022/11/24 11:29:50;;;;;;;23.33;6.10;;;10.50;1.00;;;;;;6214092;23;20415;-47
2022/11/24 11:32:21;;;;;;;20.63;6.90;;;10.40;99.90;;;;;;6213628;23;20404;-47
2022/11/24 11:34:49;;;;;;;20.53;7.27;;;10.30;99.90;;;;;;6214088;23;20376;-49
2022/11/24 11:37:16;;;;;;;31.17;7.37;;;10.20;99.90;;;;;;6213753;23;20461;-47
2022/11/24 11:39:53;;;;;;;26.70;6.70;;;10.10;99.90;;;;;;6214380;23;21149;-47
2022/11/24 11:42:43;;;;;;;28.20;7.60;;;10.10;99.90;;;;;;6187801;23;20413;-48
2022/11/24 11:45:20;;;;;;;24.27;7.67;;;10.00;99.90;;;;;;6213902;23;20435;-47
2022/11/24 11:48:01;;;;;;;17.47;6.73;;;10.00;1.00;;;;;;6214313;23;20365;-47
2022/11/24 11:50:40;;;;;;;34.20;8.00;;;9.90;86.70;;;;;;6213895;23;20832;-47
2022/11/24 11:53:20;;;;;;;20.90;7.23;;;9.90;99.90;;;;;;6213888;23;20452;-46
2022/11/24 11:55:52;;;;;;;24.60;6.90;;;9.90;99.90;;;;;;6214129;23;20412;-47
2022/11/24 11:58:45;;;;;;;22.40;7.50;;;10.00;1.00;;;;;;6213627;23;20669;-47
2022/11/24 12:01:35;;;;;;;22.50;7.40;;;10.10;99.90;;;;;;6213947;23;20719;-47
2022/11/24 12:04:28;;;;;;;22.40;6.90;;;10.20;1.00;;;;;;6213724;23;20421;-46
2022/11/24 12:07:14;;;;;;;27.73;7.17;;;10.10;1.00;;;;;;6214279;23;20410;-47
2022/11/24 12:09:46;;;;;;;22.97;6.27;;;10.20;99.90;;;;;;6213619;23;20365;-47
2022/11/24 12:12:43;;;;;;;28.67;5.90;;;10.10;1.00;;;;;;6213577;23;20774;-47
2022/11/24 12:15:13;;;;;;;24.70;6.33;;;10.10;3.40;;;;;;6213482;23;20444;-46
2022/11/24 12:18:05;;;;;;;16.70;6.10;;;10.10;99.90;;;;;;6213722;23;20666;-47
2022/11/24 12:20:43;;;;;;;22.30;5.93;;;10.10;1.00;;;;;;6213710;23;20441;-47
2022/11/24 12:23:21;;;;;;;15.27;5.63;;;10.00;1.00;;;;;;6186980;23;20396;-47
2022/11/24 12:25:55;;;;;;;21.40;6.13;;;10.00;99.90;;;;;;6213499;23;20366;-46
2022/11/24 12:28:24;;;;;;;19.40;5.73;;;9.90;1.00;;;;;;6213339;23;20365;-46
2022/11/24 12:31:22;;;;;;;24.13;6.27;;;9.90;1.00;;;;;;6213439;23;20370;-47
2022/11/24 12:33:51;;;;;;;23.47;7.40;;;10.00;1.00;;;;;;6213169;23;20373;-47
2022/11/24 12:36:33;;;;;;;17.13;6.20;;;10.10;1.00;;;;;;6213226;23;20448;-47
2022/11/24 12:39:05;;;;;;;22.43;8.47;;;10.00;99.90;;;;;;6213146;23;20376;-47
2022/11/24 12:41:55;;;;;;;16.23;6.90;;;10.00;99.90;;;;;;6213179;23;20527;-46
2022/11/24 12:44:45;;;;;;;20.10;6.27;;;10.10;1.00;;;;;;6187111;23;20389;-47
2022/11/24 12:47:22;;;;;;;19.73;6.27;;;10.10;99.90;;;;;;6207762;23;20382;-48
2022/11/24 12:49:56;;;;;;;20.30;6.63;;;10.10;99.90;;;;;;6213250;23;20696;-50
2022/11/24 12:52:22;;;;;;;17.00;6.87;;;10.20;1.00;;;;;;6213385;23;20365;-47
2022/11/24 12:54:47;;;;;;;19.53;7.13;;;10.20;99.90;;;;;;6213663;23;20681;-46
2022/11/24 12:57:24;;;;;;;23.50;7.50;;;10.20;1.00;;;;;;6213770;23;20148;-51
2022/11/24 13:00:00;;;;;;;22.03;7.83;;;10.10;99.90;;;;;;6213590;23;20866;-53
2022/11/24 13:02:39;;;;;;;17.63;6.80;;;10.10;1.00;;;;;;6213018;23;20548;-53
2022/11/24 13:05:24;;;;;;;14.60;7.40;;;10.10;11.40;;;;;;6215320;23;20380;-54
2022/11/24 13:07:56;;;;;;;23.23;7.97;;;10.20;99.90;;;;;;6215096;23;20413;-53
2022/11/24 13:10:29;;;;;;;17.30;7.30;;;10.10;1.00;;;;;;6215447;23;20373;-52